Decoded Metar for PAFS (NIKOLAI in AK, USA) (IATA:NIB) | Meteo·Mobile Aviation Weather
aviador You're here:

PAFS Decoded Metar

NIKOLAI in AK, USA
Report Time2019-02-22 03:27:00
UTC Time2019-02-22 03:44:27
Flight Rules mvfr MVFR
Wind070° at 03 kt
W.Decomp.*RWY 04: 2.9 kt HW 0.6 kt RCW
W.Rank070° ranks 5
Current wind is below 070° avg. (6.2)
Visibility9999 m
Phenomena:N/A
Clouds:Overcast 014 Hf
Expected CloudBase > 1,200 ft AGL from Temp-Dew spread
Ceiling1,400 ft
Temp-8°C (ISA -22)
Dew Point-11°C (79% RH)
AAT-12.2°C
QNH1020 hPa
Density Alt-2,546 ft
Elevation413 ft
Report Wrong Elevation
Raw Report
PAFS 220327Z AUTO 07003KT 10SM OVC014 M08/M11 A3013=

Extra information for PAFS:More info

Metar Taf Metar & Taf Last 4 Metars F.Rules Stats Wind Profile Meteogram Temp Stats Airport Information Weather charts Add Link Nearby VenuesMetar ALERT Operation Metar Decoded Social comments

AIRNAV info for PAFS